Time;durP1;ratioP1;P1;durP2;ratioP2;P2;SDS_P1;SDS_P2;PMS_P1;PMS_P2;Temp;Humidity;BMP_temperature;BMP_pressure;BME280_temperature;BME280_humidity;BME280_pressure;Samples;Min_cycle;Max_cycle;Signal;HPM_P1;HPM_P2
2022/07/19 00:01:20;;;;;;;7.80;2.83;;;;;;;;;;5054899;28;20438;-80
2022/07/19 00:04:06;;;;;;;7.70;3.20;;;;;;;;;;5054958;28;20049;-78
2022/07/19 00:06:51;;;;;;;5.30;3.05;;;;;;;;;;5054362;28;20037;-79
2022/07/19 00:09:37;;;;;;;7.55;2.90;;;;;;;;;;5039409;28;20059;-79
2022/07/19 00:12:22;;;;;;;6.05;2.60;;;;;;;;;;5054921;28;20044;-78
2022/07/19 00:15:10;;;;;;;7.80;2.67;;;;;;;;;;5060829;28;20044;-78
2022/07/19 00:17:55;;;;;;;6.95;2.70;;;;;;;;;;5054871;28;20045;-83
2022/07/19 00:20:41;;;;;;;4.28;2.45;;;;;;;;;;5054406;28;20049;-81
2022/07/19 00:23:27;;;;;;;6.20;2.50;;;;;;;;;;5054086;28;20045;-81
2022/07/19 00:26:12;;;;;;;2.83;2.42;;;;;;;;;;5053598;28;20394;-81
2022/07/19 00:29:00;;;;;;;6.45;2.60;;;;;;;;;;5054294;28;20045;-83
2022/07/19 00:31:45;;;;;;;4.40;2.33;;;;;;;;;;5053918;28;20045;-83
2022/07/19 00:34:31;;;;;;;4.82;2.65;;;;;;;;;;5054148;28;20041;-83
2022/07/19 00:37:16;;;;;;;4.40;2.40;;;;;;;;;;5031729;28;20045;-83
2022/07/19 00:40:03;;;;;;;4.50;2.45;;;;;;;;;;5045671;28;20053;-83
2022/07/19 00:42:54;;;;;;;5.45;2.63;;;;;;;;;;5054305;28;20045;-84
2022/07/19 00:45:40;;;;;;;5.25;2.33;;;;;;;;;;5053359;28;20398;-83
2022/07/19 00:48:26;;;;;;;4.15;2.70;;;;;;;;;;5053551;28;20049;-83
2022/07/19 00:51:13;;;;;;;6.13;2.50;;;;;;;;;;5053031;28;20049;-84
2022/07/19 00:54:01;;;;;;;4.72;2.42;;;;;;;;;;5054172;28;20045;-84
2022/07/19 00:56:51;;;;;;;4.50;2.47;;;;;;;;;;5054311;28;20040;-83
2022/07/19 00:59:37;;;;;;;8.55;3.00;;;;;;;;;;5053755;28;20048;-83
2022/07/19 01:02:23;;;;;;;8.40;3.00;;;;;;;;;;5032084;28;20045;-82
2022/07/19 01:05:11;;;;;;;5.10;2.72;;;;;;;;;;5045041;28;20390;-82
2022/07/19 01:07:56;;;;;;;4.70;2.65;;;;;;;;;;5053949;28;20044;-84
2022/07/19 01:10:42;;;;;;;4.47;2.60;;;;;;;;;;5031891;28;20045;-83
2022/07/19 01:13:27;;;;;;;4.22;2.25;;;;;;;;;;5044774;28;20049;-83
2022/07/19 01:16:13;;;;;;;5.22;2.30;;;;;;;;;;5053392;28;20044;-83
2022/07/19 01:18:58;;;;;;;4.95;2.20;;;;;;;;;;5030895;28;20037;-81
2022/07/19 01:21:43;;;;;;;4.78;2.30;;;;;;;;;;5053101;28;20403;-80
2022/07/19 01:24:29;;;;;;;4.90;2.55;;;;;;;;;;5053863;28;20041;-86
2022/07/19 01:27:15;;;;;;;4.47;2.22;;;;;;;;;;5053419;28;20040;-88
2022/07/19 01:30:19;;;;;;;6.18;3.03;;;;;;;;;;5039115;28;20402;-81
2022/07/19 01:33:05;;;;;;;8.73;2.45;;;;;;;;;;5053260;28;20549;-81
2022/07/19 01:35:51;;;;;;;5.68;2.72;;;;;;;;;;5053486;28;20056;-82
2022/07/19 01:38:38;;;;;;;5.22;2.55;;;;;;;;;;5052885;28;20044;-81
2022/07/19 01:41:23;;;;;;;3.30;2.80;;;;;;;;;;5052980;28;20037;-81
2022/07/19 01:44:08;;;;;;;7.05;3.30;;;;;;;;;;5053372;28;20044;-81
2022/07/19 01:46:54;;;;;;;9.13;3.92;;;;;;;;;;5060292;28;20470;-82
2022/07/19 01:49:40;;;;;;;7.05;3.70;;;;;;;;;;5053154;28;20049;-82
2022/07/19 01:52:25;;;;;;;4.82;3.45;;;;;;;;;;5031699;28;20045;-82
2022/07/19 01:55:11;;;;;;;4.55;3.60;;;;;;;;;;5052786;28;20044;-82
2022/07/19 01:57:57;;;;;;;5.90;2.97;;;;;;;;;;5053227;28;20041;-82
2022/07/19 02:00:42;;;;;;;7.03;3.50;;;;;;;;;;5053388;28;20394;-82
2022/07/19 02:03:27;;;;;;;5.53;3.15;;;;;;;;;;5052377;28;20044;-82
2022/07/19 02:06:13;;;;;;;4.60;3.20;;;;;;;;;;5053231;28;20045;-82
2022/07/19 02:08:59;;;;;;;5.30;3.00;;;;;;;;;;5052733;28;20398;-82
2022/07/19 02:11:44;;;;;;;4.80;2.72;;;;;;;;;;5052526;28;20045;-82
2022/07/19 02:14:30;;;;;;;7.75;3.45;;;;;;;;;;5053093;28;20037;-83
2022/07/19 02:17:16;;;;;;;5.55;3.80;;;;;;;;;;5052506;28;20053;-82
2022/07/19 02:20:01;;;;;;;6.47;3.88;;;;;;;;;;5053033;28;20048;-82
2022/07/19 02:22:47;;;;;;;4.93;3.20;;;;;;;;;;5052677;28;20053;-83
2022/07/19 02:25:32;;;;;;;6.75;3.05;;;;;;;;;;5052680;28;20037;-82
2022/07/19 02:28:19;;;;;;;4.95;3.10;;;;;;;;;;5053210;28;20045;-83
2022/07/19 02:31:04;;;;;;;3.90;2.70;;;;;;;;;;5052741;28;20049;-82
2022/07/19 02:33:50;;;;;;;3.45;2.50;;;;;;;;;;5053622;28;20057;-82
2022/07/19 02:36:36;;;;;;;4.65;3.10;;;;;;;;;;5059497;28;20057;-82
2022/07/19 02:39:21;;;;;;;5.28;2.70;;;;;;;;;;5059911;28;20037;-82
2022/07/19 02:42:07;;;;;;;3.60;2.67;;;;;;;;;;5060364;28;20045;-82
2022/07/19 02:44:52;;;;;;;4.80;3.03;;;;;;;;;;5059064;28;20040;-82
2022/07/19 02:47:38;;;;;;;3.97;2.67;;;;;;;;;;5045287;28;20048;-82
2022/07/19 02:50:24;;;;;;;3.65;2.85;;;;;;;;;;5047855;28;20045;-84
2022/07/19 02:53:10;;;;;;;3.88;2.67;;;;;;;;;;5047526;28;20049;-82
2022/07/19 02:55:56;;;;;;;5.30;2.60;;;;;;;;;;5063686;28;20049;-82
2022/07/19 02:58:41;;;;;;;8.73;3.20;;;;;;;;;;5060845;28;20049;-83
2022/07/19 03:01:29;;;;;;;4.50;3.05;;;;;;;;;;5061952;28;20048;-83
2022/07/19 03:04:13;;;;;;;3.70;2.60;;;;;;;;;;5061795;28;20049;-82
2022/07/19 03:06:59;;;;;;;5.55;2.75;;;;;;;;;;5055227;28;20048;-83
2022/07/19 03:09:45;;;;;;;5.40;2.80;;;;;;;;;;5055991;28;20045;-83
2022/07/19 03:12:31;;;;;;;3.85;2.53;;;;;;;;;;5055141;28;20049;-83
2022/07/19 03:15:17;;;;;;;4.63;2.90;;;;;;;;;;5040783;28;20510;-83
2022/07/19 03:18:03;;;;;;;4.32;2.58;;;;;;;;;;5055827;28;20041;-83
2022/07/19 03:20:48;;;;;;;3.38;2.55;;;;;;;;;;5055378;28;20041;-83
2022/07/19 03:23:36;;;;;;;4.03;3.08;;;;;;;;;;5056076;28;20052;-82
2022/07/19 03:26:21;;;;;;;4.75;3.00;;;;;;;;;;5055919;28;20041;-83
2022/07/19 03:29:06;;;;;;;7.35;3.00;;;;;;;;;;5033115;28;20049;-83
2022/07/19 03:31:52;;;;;;;6.90;2.90;;;;;;;;;;5033284;28;20045;-83
2022/07/19 03:34:38;;;;;;;8.02;2.90;;;;;;;;;;5033184;28;20049;-82
2022/07/19 03:37:23;;;;;;;5.78;3.00;;;;;;;;;;5039928;28;20037;-81
2022/07/19 03:40:09;;;;;;;5.25;2.50;;;;;;;;;;5055614;28;20045;-82
2022/07/19 03:42:55;;;;;;;6.75;2.97;;;;;;;;;;5054798;28;20390;-82
2022/07/19 03:45:41;;;;;;;4.03;2.50;;;;;;;;;;5055344;28;20041;-82
2022/07/19 03:48:27;;;;;;;3.67;2.83;;;;;;;;;;5054642;28;20052;-82
2022/07/19 03:51:13;;;;;;;4.78;2.83;;;;;;;;;;5054736;28;20041;-83
2022/07/19 03:53:58;;;;;;;4.82;2.55;;;;;;;;;;5055306;28;20074;-84
2022/07/19 03:56:43;;;;;;;9.90;3.10;;;;;;;;;;5044440;28;20049;-82
2022/07/19 03:59:29;;;;;;;5.40;2.92;;;;;;;;;;5055275;28;20045;-82
2022/07/19 04:02:15;;;;;;;6.65;2.88;;;;;;;;;;5054934;28;20044;-83
2022/07/19 04:05:00;;;;;;;7.30;3.20;;;;;;;;;;5054871;28;20045;-82
2022/07/19 04:07:46;;;;;;;6.55;3.30;;;;;;;;;;5040079;28;20045;-83
2022/07/19 04:10:31;;;;;;;7.85;2.80;;;;;;;;;;5054057;28;20045;-82
2022/07/19 04:13:17;;;;;;;12.27;3.15;;;;;;;;;;5054707;28;20041;-82
2022/07/19 04:16:04;;;;;;;4.70;2.85;;;;;;;;;;5054792;28;20049;-82
2022/07/19 04:18:49;;;;;;;5.85;2.90;;;;;;;;;;5054252;28;20053;-83
2022/07/19 04:21:35;;;;;;;11.52;3.40;;;;;;;;;;5061397;28;20474;-82
2022/07/19 04:24:20;;;;;;;5.72;3.65;;;;;;;;;;5054432;28;20045;-83
2022/07/19 04:27:06;;;;;;;12.77;3.63;;;;;;;;;;5054650;28;20470;-82
2022/07/19 04:29:51;;;;;;;8.77;3.50;;;;;;;;;;5054297;28;20053;-83
2022/07/19 04:32:37;;;;;;;13.05;3.10;;;;;;;;;;5053851;28;20391;-83
2022/07/19 04:35:23;;;;;;;13.65;3.47;;;;;;;;;;5054453;28;20045;-83
2022/07/19 04:38:08;;;;;;;9.40;3.60;;;;;;;;;;5053658;28;20410;-83
2022/07/19 04:40:54;;;;;;;5.60;3.20;;;;;;;;;;5054149;28;20049;-84
2022/07/19 04:43:39;;;;;;;11.55;3.03;;;;;;;;;;5054181;28;20478;-84
2022/07/19 04:46:25;;;;;;;9.23;3.05;;;;;;;;;;5031490;28;20398;-84
2022/07/19 04:49:11;;;;;;;6.97;3.10;;;;;;;;;;5039350;28;20048;-84
2022/07/19 04:51:56;;;;;;;7.70;3.50;;;;;;;;;;5038938;28;20482;-84
2022/07/19 04:54:42;;;;;;;6.78;3.00;;;;;;;;;;5053985;28;20045;-82
2022/07/19 04:57:27;;;;;;;5.40;2.97;;;;;;;;;;5053967;28;20037;-83
2022/07/19 05:00:13;;;;;;;13.30;3.40;;;;;;;;;;5053320;28;20053;-82
2022/07/19 05:02:59;;;;;;;6.63;3.35;;;;;;;;;;5054044;28;20052;-85
2022/07/19 05:05:44;;;;;;;6.55;2.97;;;;;;;;;;5031848;28;20040;-84
2022/07/19 05:08:30;;;;;;;5.50;2.70;;;;;;;;;;5030791;28;20048;-84
2022/07/19 05:11:15;;;;;;;7.55;3.20;;;;;;;;;;5038729;28;20394;-83
2022/07/19 05:14:01;;;;;;;7.30;2.65;;;;;;;;;;5053344;28;20049;-83
2022/07/19 05:16:49;;;;;;;7.55;3.33;;;;;;;;;;5025798;28;20044;-82
2022/07/19 05:19:34;;;;;;;6.43;3.20;;;;;;;;;;5053496;28;20395;-83
2022/07/19 05:22:20;;;;;;;8.40;2.90;;;;;;;;;;5052870;28;20052;-83
2022/07/19 05:25:06;;;;;;;8.45;3.13;;;;;;;;;;5053833;28;20044;-83
2022/07/19 05:27:51;;;;;;;11.25;2.78;;;;;;;;;;5038445;28;20041;-83
2022/07/19 05:30:36;;;;;;;7.20;2.90;;;;;;;;;;5053335;28;20052;-84
2022/07/19 05:33:22;;;;;;;8.93;3.45;;;;;;;;;;5060408;28;20425;-84
2022/07/19 05:36:11;;;;;;;11.48;3.28;;;;;;;;;;5038173;28;20402;-84
2022/07/19 05:38:56;;;;;;;8.10;3.78;;;;;;;;;;5052902;28;20045;-84
2022/07/19 05:41:42;;;;;;;10.70;3.83;;;;;;;;;;5031428;28;20045;-81
2022/07/19 05:44:27;;;;;;;12.10;3.88;;;;;;;;;;5053099;28;20045;-81
2022/07/19 05:47:13;;;;;;;7.32;3.10;;;;;;;;;;5053330;28;20052;-81
2022/07/19 05:49:59;;;;;;;14.23;3.10;;;;;;;;;;5052682;28;20048;-81
2022/07/19 05:52:44;;;;;;;5.80;3.20;;;;;;;;;;5053048;28;20036;-81
2022/07/19 05:55:30;;;;;;;6.18;2.63;;;;;;;;;;5059930;28;20044;-80
2022/07/19 05:58:17;;;;;;;11.88;3.03;;;;;;;;;;5052328;28;20041;-80
2022/07/19 06:01:19;;;;;;;7.03;2.60;;;;;;;;;;5053124;28;20048;-79
2022/07/19 06:04:05;;;;;;;3.97;2.60;;;;;;;;;;5052483;28;20482;-78
2022/07/19 06:06:50;;;;;;;7.35;2.47;;;;;;;;;;5053416;28;20402;-77
2022/07/19 06:09:36;;;;;;;7.28;2.60;;;;;;;;;;5059763;28;20049;-76
2022/07/19 06:12:21;;;;;;;9.07;2.75;;;;;;;;;;5052300;28;20049;-76
2022/07/19 06:15:07;;;;;;;4.10;2.28;;;;;;;;;;5053478;28;20049;-77
2022/07/19 06:17:52;;;;;;;7.03;2.72;;;;;;;;;;5052503;28;20037;-78
2022/07/19 06:20:38;;;;;;;7.03;2.40;;;;;;;;;;5053006;28;20053;-75
2022/07/19 06:23:24;;;;;;;8.77;2.20;;;;;;;;;;5052895;28;20044;-77
2022/07/19 06:26:10;;;;;;;9.68;2.80;;;;;;;;;;5056393;28;20040;-77
2022/07/19 06:28:56;;;;;;;13.18;2.92;;;;;;;;;;5056895;28;20049;-77
2022/07/19 06:31:41;;;;;;;6.10;2.40;;;;;;;;;;5056304;28;20045;-79
2022/07/19 06:34:27;;;;;;;11.63;2.85;;;;;;;;;;5056389;28;20066;-78
2022/07/19 06:37:12;;;;;;;6.32;2.83;;;;;;;;;;5041729;28;20045;-78
2022/07/19 06:39:57;;;;;;;6.60;2.65;;;;;;;;;;5056236;28;20041;-78
2022/07/19 06:42:42;;;;;;;3.60;2.40;;;;;;;;;;5056505;28;20045;-78
2022/07/19 06:45:28;;;;;;;5.70;2.55;;;;;;;;;;5056318;28;20049;-78
2022/07/19 06:48:14;;;;;;;5.65;2.38;;;;;;;;;;5062562;28;20049;-77
2022/07/19 06:50:59;;;;;;;4.18;2.42;;;;;;;;;;5062869;28;20037;-78
2022/07/19 06:53:45;;;;;;;5.90;2.38;;;;;;;;;;5055958;28;20045;-78
2022/07/19 06:56:31;;;;;;;9.82;2.70;;;;;;;;;;5056268;28;20056;-77
2022/07/19 06:59:16;;;;;;;5.53;2.42;;;;;;;;;;5047844;28;20041;-78
2022/07/19 07:02:01;;;;;;;10.45;2.35;;;;;;;;;;5055918;28;20049;-80
2022/07/19 07:04:46;;;;;;;8.68;2.85;;;;;;;;;;5056243;28;20486;-79
2022/07/19 07:07:32;;;;;;;7.70;2.90;;;;;;;;;;5055667;28;20471;-81
2022/07/19 07:10:18;;;;;;;7.75;2.63;;;;;;;;;;5055925;28;20040;-79
2022/07/19 07:13:03;;;;;;;8.27;2.90;;;;;;;;;;5055633;28;20037;-78
2022/07/19 07:15:49;;;;;;;8.40;2.97;;;;;;;;;;5055537;28;20044;-80
2022/07/19 07:18:34;;;;;;;6.78;2.67;;;;;;;;;;5055935;28;20040;-77
2022/07/19 07:21:20;;;;;;;11.88;3.65;;;;;;;;;;5055795;28;20049;-78
2022/07/19 07:24:05;;;;;;;6.05;2.38;;;;;;;;;;5047265;28;20041;-79
2022/07/19 07:26:51;;;;;;;7.90;2.90;;;;;;;;;;5055606;28;20049;-78
2022/07/19 07:29:36;;;;;;;5.63;2.67;;;;;;;;;;5055304;28;20041;-78
2022/07/19 07:32:22;;;;;;;8.77;2.55;;;;;;;;;;5055508;28;20048;-80
2022/07/19 07:35:08;;;;;;;6.85;2.20;;;;;;;;;;5054998;28;20041;-79
2022/07/19 07:37:54;;;;;;;8.00;2.42;;;;;;;;;;5054596;28;20415;-78
2022/07/19 07:40:39;;;;;;;5.18;2.38;;;;;;;;;;5055627;28;20053;-78
2022/07/19 07:43:24;;;;;;;8.18;2.35;;;;;;;;;;5054830;28;20041;-80
2022/07/19 07:46:10;;;;;;;10.30;2.45;;;;;;;;;;5055182;28;20041;-79
2022/07/19 07:48:56;;;;;;;8.13;2.95;;;;;;;;;;5055176;28;20395;-79
2022/07/19 07:51:41;;;;;;;8.05;2.10;;;;;;;;;;5054669;28;20041;-79
2022/07/19 07:54:27;;;;;;;4.60;2.30;;;;;;;;;;5055083;28;20045;-80
2022/07/19 07:57:13;;;;;;;5.10;2.05;;;;;;;;;;5054793;28;20040;-79
2022/07/19 07:59:58;;;;;;;2.88;1.80;;;;;;;;;;5055006;28;20367;-80
2022/07/19 08:02:45;;;;;;;10.02;2.50;;;;;;;;;;5054865;28;20089;-76
2022/07/19 08:05:31;;;;;;;6.90;2.33;;;;;;;;;;5060798;28;20045;-77
2022/07/19 08:08:17;;;;;;;8.00;2.53;;;;;;;;;;5055486;28;20053;-77
2022/07/19 08:11:03;;;;;;;4.13;2.35;;;;;;;;;;5063295;28;20478;-77
2022/07/19 08:13:48;;;;;;;3.25;2.20;;;;;;;;;;5055705;28;20434;-77
2022/07/19 08:16:32;;;;;;;6.20;2.38;;;;;;;;;;5056125;28;20040;-77
2022/07/19 08:19:18;;;;;;;7.60;2.33;;;;;;;;;;5055212;28;20044;-77
2022/07/19 08:22:03;;;;;;;3.72;2.30;;;;;;;;;;5056369;28;20048;-77
2022/07/19 08:24:48;;;;;;;5.72;2.40;;;;;;;;;;5063503;28;20045;-76
2022/07/19 08:27:34;;;;;;;4.68;2.33;;;;;;;;;;5062955;28;20048;-77
2022/07/19 08:30:20;;;;;;;5.22;2.10;;;;;;;;;;5056065;28;20048;-77
2022/07/19 08:33:08;;;;;;;6.65;2.05;;;;;;;;;;5055483;28;20045;-78
2022/07/19 08:35:54;;;;;;;8.18;2.35;;;;;;;;;;5055582;28;20045;-77
2022/07/19 08:38:39;;;;;;;3.33;2.38;;;;;;;;;;5054960;28;20053;-76
2022/07/19 08:41:25;;;;;;;3.95;2.10;;;;;;;;;;5053864;28;20049;-79
2022/07/19 08:44:12;;;;;;;8.50;2.15;;;;;;;;;;5054682;28;20041;-76
2022/07/19 08:46:58;;;;;;;12.05;2.63;;;;;;;;;;5053748;28;20041;-78
2022/07/19 08:49:44;;;;;;;9.40;2.50;;;;;;;;;;5054448;28;20057;-77
2022/07/19 08:52:32;;;;;;;5.38;2.40;;;;;;;;;;5054276;28;20049;-77
2022/07/19 08:55:17;;;;;;;4.45;2.20;;;;;;;;;;5054034;28;20053;-77
2022/07/19 08:58:02;;;;;;;5.57;2.10;;;;;;;;;;5054097;28;20045;-77
2022/07/19 09:00:48;;;;;;;12.70;3.15;;;;;;;;;;5054353;28;20045;-77
2022/07/19 09:03:33;;;;;;;5.57;2.28;;;;;;;;;;5060715;28;20486;-77
2022/07/19 09:06:19;;;;;;;5.03;2.08;;;;;;;;;;5055525;28;20048;-77
2022/07/19 09:09:05;;;;;;;6.20;1.90;;;;;;;;;;5054099;28;20037;-76
2022/07/19 09:11:52;;;;;;;5.93;2.20;;;;;;;;;;5054379;28;20049;-77
2022/07/19 09:14:39;;;;;;;5.88;1.85;;;;;;;;;;5054886;28;20045;-78
2022/07/19 09:17:29;;;;;;;5.78;2.25;;;;;;;;;;5038511;28;20390;-79
2022/07/19 09:20:26;;;;;;;5.03;1.98;;;;;;;;;;5053558;28;20045;-77
2022/07/19 09:23:12;;;;;;;8.18;1.88;;;;;;;;;;5059926;28;20033;-78
2022/07/19 09:26:01;;;;;;;6.03;2.10;;;;;;;;;;5054038;28;20036;-78
2022/07/19 09:28:47;;;;;;;6.10;2.42;;;;;;;;;;5054302;28;20041;-76
2022/07/19 09:31:32;;;;;;;4.70;2.10;;;;;;;;;;5059642;28;20486;-78
2022/07/19 09:34:29;;;;;;;3.95;2.25;;;;;;;;;;5054154;28;20390;-77
2022/07/19 09:37:20;;;;;;;3.30;2.13;;;;;;;;;;5055784;28;20052;-77
2022/07/19 09:40:08;;;;;;;5.45;2.38;;;;;;;;;;5055112;28;20049;-76
2022/07/19 09:42:54;;;;;;;3.22;2.10;;;;;;;;;;5060631;28;20045;-77
2022/07/19 09:45:39;;;;;;;6.55;2.20;;;;;;;;;;5054310;28;20041;-76
2022/07/19 09:48:42;;;;;;;7.97;2.65;;;;;;;;;;5052916;28;20479;-79
2022/07/19 09:51:28;;;;;;;3.55;2.00;;;;;;;;;;5052575;28;20033;-77
2022/07/19 09:54:15;;;;;;;9.70;2.35;;;;;;;;;;5059489;28;20041;-77
2022/07/19 09:57:01;;;;;;;8.10;2.63;;;;;;;;;;5053061;28;20045;-77
2022/07/19 09:59:51;;;;;;;6.55;2.10;;;;;;;;;;5056266;28;20478;-78
2022/07/19 10:02:38;;;;;;;8.25;2.47;;;;;;;;;;5055922;28;20041;-77
2022/07/19 10:05:25;;;;;;;4.47;2.00;;;;;;;;;;5056625;28;20470;-76
2022/07/19 10:08:10;;;;;;;4.07;2.10;;;;;;;;;;5063670;28;20048;-78
2022/07/19 10:10:55;;;;;;;9.73;2.15;;;;;;;;;;5057753;28;20483;-76
2022/07/19 10:13:41;;;;;;;3.20;1.75;;;;;;;;;;5056037;28;20045;-77
2022/07/19 10:16:54;;;;;;;5.20;2.00;;;;;;;;;;5063708;28;20037;-82
2022/07/19 10:19:40;;;;;;;4.82;1.75;;;;;;;;;;5056348;28;20048;-77
2022/07/19 10:22:27;;;;;;;8.98;1.77;;;;;;;;;;5056748;28;20486;-77
2022/07/19 10:25:15;;;;;;;3.40;1.90;;;;;;;;;;5056807;28;20394;-77
2022/07/19 10:28:00;;;;;;;4.72;1.80;;;;;;;;;;5056234;28;20045;-76
2022/07/19 10:30:45;;;;;;;4.05;1.73;;;;;;;;;;5056721;28;20045;-77
2022/07/19 10:33:34;;;;;;;3.67;1.90;;;;;;;;;;5063203;28;20053;-78
2022/07/19 10:36:44;;;;;;;2.38;1.80;;;;;;;;;;5056447;28;20048;-78
2022/07/19 10:39:35;;;;;;;5.43;1.88;;;;;;;;;;5056102;28;20049;-77
2022/07/19 10:42:22;;;;;;;3.50;1.77;;;;;;;;;;5055874;28;20049;-77
2022/07/19 10:45:10;;;;;;;3.38;1.88;;;;;;;;;;5056107;28;20045;-80
2022/07/19 10:48:01;;;;;;;4.45;1.90;;;;;;;;;;5063069;28;20057;-77
2022/07/19 10:50:52;;;;;;;2.50;1.60;;;;;;;;;;5057453;28;20048;-76
2022/07/19 10:53:40;;;;;;;3.90;1.60;;;;;;;;;;5056215;28;20045;-76
2022/07/19 10:56:33;;;;;;;2.33;1.63;;;;;;;;;;5055894;28;20036;-77
2022/07/19 10:59:33;;;;;;;3.10;1.88;;;;;;;;;;5056466;28;20037;-79
2022/07/19 11:02:24;;;;;;;5.07;2.20;;;;;;;;;;5055716;28;20426;-77
2022/07/19 11:05:26;;;;;;;4.13;1.80;;;;;;;;;;5057496;28;20045;-77
2022/07/19 11:08:11;;;;;;;4.50;2.70;;;;;;;;;;5063016;28;20048;-76
2022/07/19 11:11:11;;;;;;;2.78;1.38;;;;;;;;;;5054470;28;20044;-76
2022/07/19 11:14:00;;;;;;;6.50;1.70;;;;;;;;;;5056070;28;20053;-76
2022/07/19 11:16:46;;;;;;;3.42;1.60;;;;;;;;;;5055151;28;20390;-76
2022/07/19 11:19:31;;;;;;;2.17;1.50;;;;;;;;;;5056115;28;20049;-76
2022/07/19 11:22:16;;;;;;;3.85;1.80;;;;;;;;;;5056287;28;20049;-76
2022/07/19 11:25:04;;;;;;;3.15;1.70;;;;;;;;;;5055762;28;20040;-76
2022/07/19 11:27:50;;;;;;;5.03;1.70;;;;;;;;;;5055631;28;20041;-76
2022/07/19 11:30:36;;;;;;;5.35;1.50;;;;;;;;;;5047011;28;20041;-75
2022/07/19 11:33:21;;;;;;;5.55;1.60;;;;;;;;;;5056712;28;20628;-75
2022/07/19 11:36:07;;;;;;;3.20;2.05;;;;;;;;;;5063483;28;20049;-75
2022/07/19 11:38:55;;;;;;;4.20;1.98;;;;;;;;;;5056374;28;20049;-77
2022/07/19 11:41:44;;;;;;;3.28;1.60;;;;;;;;;;5056025;28;20491;-77
2022/07/19 11:44:29;;;;;;;4.07;1.65;;;;;;;;;;5055804;28;20037;-76
2022/07/19 11:47:15;;;;;;;5.07;1.80;;;;;;;;;;5056076;28;20045;-76
2022/07/19 11:50:08;;;;;;;2.58;1.58;;;;;;;;;;5055472;28;20045;-76
2022/07/19 11:52:55;;;;;;;3.17;1.70;;;;;;;;;;5054711;28;20040;-76
2022/07/19 11:55:41;;;;;;;4.47;1.70;;;;;;;;;;5055020;28;20045;-76
2022/07/19 11:58:27;;;;;;;2.47;1.85;;;;;;;;;;5062103;28;20041;-76
2022/07/19 12:01:13;;;;;;;4.85;1.85;;;;;;;;;;5054645;28;20394;-76
2022/07/19 12:04:09;;;;;;;5.22;1.83;;;;;;;;;;5055099;28;20053;-77
2022/07/19 12:06:59;;;;;;;5.82;1.90;;;;;;;;;;5054511;28;20045;-76
2022/07/19 12:09:45;;;;;;;2.55;1.63;;;;;;;;;;5054870;28;20045;-76
2022/07/19 12:12:40;;;;;;;4.63;1.63;;;;;;;;;;5054985;28;20049;-75
2022/07/19 12:15:26;;;;;;;4.15;1.70;;;;;;;;;;5054214;28;20084;-76
2022/07/19 12:18:12;;;;;;;2.45;1.45;;;;;;;;;;5054922;28;20049;-76
2022/07/19 12:21:17;;;;;;;3.28;1.67;;;;;;;;;;5054481;28;20390;-77
2022/07/19 12:24:22;;;;;;;5.15;1.70;;;;;;;;;;5061480;28;20394;-76
2022/07/19 12:27:10;;;;;;;2.80;1.90;;;;;;;;;;5054726;28;20041;-76
2022/07/19 12:29:58;;;;;;;4.75;1.50;;;;;;;;;;5061452;28;20044;-76
2022/07/19 12:32:46;;;;;;;2.10;1.60;;;;;;;;;;5054210;28;20049;-76
2022/07/19 12:35:43;;;;;;;8.63;1.70;;;;;;;;;;5053965;28;20037;-76
2022/07/19 12:38:33;;;;;;;2.35;1.40;;;;;;;;;;5053955;28;20045;-76
2022/07/19 12:41:19;;;;;;;2.70;1.67;;;;;;;;;;5060826;28;20045;-76
2022/07/19 12:44:04;;;;;;;1.83;1.48;;;;;;;;;;5053604;28;20382;-76
2022/07/19 12:46:49;;;;;;;6.95;1.90;;;;;;;;;;5060801;28;20037;-77
2022/07/19 12:49:47;;;;;;;3.17;1.60;;;;;;;;;;5053631;28;20045;-76
2022/07/19 12:52:32;;;;;;;5.78;1.73;;;;;;;;;;5054022;28;20041;-76
2022/07/19 12:55:19;;;;;;;3.03;1.60;;;;;;;;;;5053833;28;20052;-76
2022/07/19 12:58:07;;;;;;;3.17;1.70;;;;;;;;;;5053469;28;20486;-76
2022/07/19 13:00:52;;;;;;;5.25;1.80;;;;;;;;;;5060464;28;20394;-76
2022/07/19 13:03:41;;;;;;;4.43;1.90;;;;;;;;;;5059589;28;20055;-76
2022/07/19 13:06:26;;;;;;;5.65;1.67;;;;;;;;;;5053681;28;20478;-76
2022/07/19 13:09:12;;;;;;;9.48;1.95;;;;;;;;;;5060317;28;20052;-76
2022/07/19 13:11:57;;;;;;;3.53;1.73;;;;;;;;;;5053047;28;20044;-76
2022/07/19 13:14:43;;;;;;;2.58;1.60;;;;;;;;;;5060267;28;20045;-76
2022/07/19 13:17:28;;;;;;;3.95;1.88;;;;;;;;;;5053347;28;20037;-76
2022/07/19 13:20:14;;;;;;;10.70;1.70;;;;;;;;;;5054128;28;20447;-75
2022/07/19 13:23:00;;;;;;;3.80;1.52;;;;;;;;;;5053859;28;20045;-75
2022/07/19 13:25:45;;;;;;;7.43;1.50;;;;;;;;;;5052985;28;20044;-76
2022/07/19 13:28:30;;;;;;;4.53;1.95;;;;;;;;;;5053654;28;20048;-76
2022/07/19 13:31:16;;;;;;;4.60;1.80;;;;;;;;;;5060414;28;20049;-76
2022/07/19 13:34:02;;;;;;;3.47;1.80;;;;;;;;;;5052418;28;20057;-76
2022/07/19 13:36:48;;;;;;;4.72;1.83;;;;;;;;;;5053389;28;20041;-76
2022/07/19 13:39:33;;;;;;;3.38;1.40;;;;;;;;;;5052571;28;20049;-75
2022/07/19 13:42:19;;;;;;;8.15;1.67;;;;;;;;;;5053608;28;20049;-75
2022/07/19 13:45:05;;;;;;;5.75;1.90;;;;;;;;;;5053180;28;20041;-75
2022/07/19 13:47:50;;;;;;;3.17;1.55;;;;;;;;;;5052937;28;20041;-76
2022/07/19 13:50:37;;;;;;;9.40;2.00;;;;;;;;;;5053276;28;20045;-75
2022/07/19 13:53:23;;;;;;;4.15;1.70;;;;;;;;;;5059217;28;20044;-76
2022/07/19 13:56:09;;;;;;;4.28;1.67;;;;;;;;;;5054714;28;20414;-77
2022/07/19 13:58:54;;;;;;;5.15;1.60;;;;;;;;;;5053447;28;20044;-76
2022/07/19 14:01:40;;;;;;;2.30;1.50;;;;;;;;;;5053520;28;20041;-76
2022/07/19 14:04:25;;;;;;;2.92;1.40;;;;;;;;;;5054090;28;20057;-76
2022/07/19 14:07:11;;;;;;;5.18;1.70;;;;;;;;;;5052942;28;20045;-77
2022/07/19 14:09:56;;;;;;;2.97;1.55;;;;;;;;;;5059920;28;20041;-77
2022/07/19 14:12:42;;;;;;;6.43;1.70;;;;;;;;;;5053688;28;20049;-77
2022/07/19 14:15:29;;;;;;;4.70;1.70;;;;;;;;;;5059845;28;20057;-76
2022/07/19 14:18:14;;;;;;;5.28;2.10;;;;;;;;;;5054182;28;20041;-76
2022/07/19 14:21:01;;;;;;;7.55;1.77;;;;;;;;;;5054080;28;20049;-76
2022/07/19 14:23:46;;;;;;;5.35;2.00;;;;;;;;;;5052576;28;20052;-76
2022/07/19 14:26:32;;;;;;;1.85;1.50;;;;;;;;;;5052847;28;20407;-76
2022/07/19 14:29:17;;;;;;;3.80;1.70;;;;;;;;;;5052631;28;20044;-76
2022/07/19 14:32:03;;;;;;;6.55;1.77;;;;;;;;;;5052996;28;20049;-77
2022/07/19 14:34:49;;;;;;;4.68;2.00;;;;;;;;;;5052801;28;20403;-78
2022/07/19 14:37:34;;;;;;;3.50;1.65;;;;;;;;;;5052075;28;20033;-76
2022/07/19 14:40:20;;;;;;;9.15;1.92;;;;;;;;;;5052744;28;20049;-76
2022/07/19 14:43:07;;;;;;;4.07;1.50;;;;;;;;;;5053457;28;20049;-76
2022/07/19 14:45:52;;;;;;;4.55;1.92;;;;;;;;;;5055396;28;20053;-75
2022/07/19 14:48:37;;;;;;;4.50;1.83;;;;;;;;;;5041379;28;20048;-75
2022/07/19 14:51:22;;;;;;;7.85;1.63;;;;;;;;;;5055801;28;20048;-75
2022/07/19 14:54:08;;;;;;;3.08;1.70;;;;;;;;;;5047621;28;20045;-75
2022/07/19 14:56:54;;;;;;;4.55;1.90;;;;;;;;;;5062713;28;20049;-75
2022/07/19 14:59:39;;;;;;;7.47;1.77;;;;;;;;;;5055638;28;20045;-75
2022/07/19 15:02:24;;;;;;;2.80;1.75;;;;;;;;;;5055630;28;20053;-75
2022/07/19 15:05:10;;;;;;;3.50;1.80;;;;;;;;;;5055495;28;20045;-76
2022/07/19 15:07:55;;;;;;;3.60;1.83;;;;;;;;;;5055935;28;20040;-74
2022/07/19 15:10:42;;;;;;;3.22;1.75;;;;;;;;;;5056435;28;20049;-76
2022/07/19 15:13:27;;;;;;;3.42;1.60;;;;;;;;;;5055000;28;20049;-75
2022/07/19 15:16:12;;;;;;;5.35;1.90;;;;;;;;;;5055971;28;20483;-75
2022/07/19 15:18:58;;;;;;;1.92;1.63;;;;;;;;;;5062043;28;20053;-75
2022/07/19 15:21:44;;;;;;;4.93;1.73;;;;;;;;;;5055990;28;20049;-76
2022/07/19 15:24:29;;;;;;;3.13;1.48;;;;;;;;;;5055624;28;20037;-76
2022/07/19 15:27:15;;;;;;;2.80;1.30;;;;;;;;;;5061753;28;20045;-76
2022/07/19 15:30:00;;;;;;;3.50;1.65;;;;;;;;;;5062176;28;20041;-76
2022/07/19 15:32:46;;;;;;;4.78;1.88;;;;;;;;;;5055282;28;20037;-76
2022/07/19 15:35:32;;;;;;;7.60;1.77;;;;;;;;;;5055598;28;20049;-77
2022/07/19 15:38:17;;;;;;;6.95;2.10;;;;;;;;;;5040789;28;20041;-76
2022/07/19 15:41:03;;;;;;;3.53;1.40;;;;;;;;;;5061763;28;20473;-76
2022/07/19 15:43:49;;;;;;;8.30;1.75;;;;;;;;;;5055222;28;20037;-75
2022/07/19 15:46:35;;;;;;;4.35;1.70;;;;;;;;;;5055692;28;20037;-76
2022/07/19 15:49:21;;;;;;;6.03;1.73;;;;;;;;;;5055733;28;20057;-75
2022/07/19 15:52:09;;;;;;;3.10;1.70;;;;;;;;;;5056536;28;20044;-75
2022/07/19 15:54:54;;;;;;;5.35;1.83;;;;;;;;;;5055469;28;20490;-76
2022/07/19 15:57:40;;;;;;;2.85;1.77;;;;;;;;;;5061317;28;20391;-77
2022/07/19 16:00:27;;;;;;;4.43;1.77;;;;;;;;;;5055565;28;20049;-75
2022/07/19 16:03:12;;;;;;;3.28;1.67;;;;;;;;;;5054530;28;20398;-76
2022/07/19 16:05:58;;;;;;;5.40;1.55;;;;;;;;;;5061784;28;20037;-75
2022/07/19 16:08:44;;;;;;;6.05;1.90;;;;;;;;;;5062274;28;20041;-76
2022/07/19 16:11:29;;;;;;;6.78;1.80;;;;;;;;;;5055170;28;20045;-76
2022/07/19 16:14:15;;;;;;;10.63;1.98;;;;;;;;;;5061218;28;20040;-76
2022/07/19 16:17:00;;;;;;;2.35;1.60;;;;;;;;;;5060839;28;20041;-76
2022/07/19 16:19:46;;;;;;;7.35;1.95;;;;;;;;;;5054554;28;20045;-76
2022/07/19 16:22:32;;;;;;;5.88;1.70;;;;;;;;;;5054243;28;20045;-76
2022/07/19 16:25:18;;;;;;;3.65;1.50;;;;;;;;;;5054435;28;20049;-76
2022/07/19 16:28:04;;;;;;;3.50;1.52;;;;;;;;;;5054651;28;20041;-76
2022/07/19 16:30:50;;;;;;;3.22;1.67;;;;;;;;;;5053977;28;20044;-76
2022/07/19 16:33:35;;;;;;;4.55;1.70;;;;;;;;;;5054153;28;20057;-76
2022/07/19 16:36:21;;;;;;;2.90;1.70;;;;;;;;;;5054610;28;20111;-76
2022/07/19 16:39:06;;;;;;;3.85;1.77;;;;;;;;;;5053287;28;20045;-77